createdAt,value
2019-01-22T00:00:12.574Z,17.33
2019-01-22T00:02:41.002Z,17.93
2019-01-22T00:05:09.948Z,16.83
2019-01-22T00:07:38.437Z,17.10
2019-01-22T00:10:09.176Z,17.40
2019-01-22T00:12:37.702Z,17.20
2019-01-22T00:15:09.699Z,16.87
2019-01-22T00:17:38.497Z,17.43
2019-01-22T00:20:09.653Z,17.77
2019-01-22T00:22:38.217Z,17.17
2019-01-22T00:25:09.581Z,17.30
2019-01-22T00:27:38.080Z,17.40
2019-01-22T00:30:09.766Z,17.23
2019-01-22T00:32:38.257Z,17.60
2019-01-22T00:35:06.931Z,17.57
2019-01-22T00:37:35.498Z,17.47
2019-01-22T00:40:06.670Z,16.70
2019-01-22T00:42:35.093Z,18.10
2019-01-22T00:45:05.417Z,18.17
2019-01-22T00:47:33.928Z,17.90
2019-01-22T00:50:02.584Z,18.40
2019-01-22T00:52:31.384Z,18.33
2019-01-22T00:54:59.821Z,19.07
2019-01-22T00:57:28.628Z,18.37
2019-01-22T00:59:57.365Z,17.30
2019-01-22T01:02:25.777Z,17.60
2019-01-22T01:04:54.204Z,18.10
2019-01-22T01:07:22.806Z,17.47
2019-01-22T01:09:51.301Z,17.47
2019-01-22T01:12:20.178Z,18.17
2019-01-22T01:14:48.897Z,17.33
2019-01-22T01:17:17.343Z,16.53
2019-01-22T01:19:45.759Z,17.63
2019-01-22T01:22:14.323Z,17.90
2019-01-22T01:24:42.754Z,17.33
2019-01-22T01:27:11.454Z,17.27
2019-01-22T01:29:40.051Z,16.43
2019-01-22T01:32:08.486Z,17.23
2019-01-22T01:34:37.022Z,17.33
2019-01-22T01:37:05.522Z,18.00
2019-01-22T01:39:33.948Z,17.03
2019-01-22T01:42:02.545Z,17.10
2019-01-22T01:44:31.156Z,18.23
2019-01-22T01:46:59.662Z,16.60
2019-01-22T01:49:28.162Z,17.20
2019-01-22T01:51:56.645Z,16.70
2019-01-22T01:54:25.088Z,18.33
2019-01-22T01:56:53.847Z,17.23
2019-01-22T01:59:22.470Z,17.17
2019-01-22T02:01:50.970Z,17.43
2019-01-22T02:04:19.494Z,18.60
2019-01-22T02:06:48.066Z,18.63
2019-01-22T02:09:16.529Z,18.17
2019-01-22T02:11:44.983Z,19.83
2019-01-22T02:14:14.141Z,20.10
2019-01-22T02:16:57.486Z,20.13
2019-01-22T02:19:41.049Z,18.83
2019-01-22T02:22:24.558Z,19.07
2019-01-22T02:25:11.233Z,18.87
2019-01-22T02:27:51.618Z,20.60
2019-01-22T02:30:28.916Z,19.60
2019-01-22T02:33:15.002Z,19.80
2019-01-22T02:36:07.746Z,18.73
2019-01-22T02:38:54.109Z,19.03
2019-01-22T02:41:25.622Z,19.43
2019-01-22T02:44:08.494Z,19.67
2019-01-22T02:46:52.288Z,19.77
2019-01-22T02:49:23.856Z,19.17
2019-01-22T02:52:11.513Z,20.37
2019-01-22T02:54:43.002Z,19.07
2019-01-22T02:57:17.294Z,19.73
2019-01-22T02:59:48.800Z,19.43
2019-01-22T03:02:38.575Z,19.93
2019-01-22T03:05:32.861Z,19.73
2019-01-22T03:08:07.282Z,19.83
2019-01-22T03:10:41.370Z,18.93
2019-01-22T03:13:19.062Z,20.13
2019-01-22T03:16:23.613Z,21.37
2019-01-22T03:18:55.206Z,19.77
2019-01-22T03:21:26.713Z,18.83
2019-01-22T03:24:31.645Z,20.20
2019-01-22T03:27:03.211Z,20.20
2019-01-22T03:29:46.226Z,19.73
2019-01-22T03:32:35.668Z,19.33
2019-01-22T03:35:26.758Z,19.70
2019-01-22T03:38:01.222Z,19.97
2019-01-22T03:40:38.232Z,20.70
2019-01-22T03:43:12.781Z,19.23
2019-01-22T03:45:44.362Z,20.17
2019-01-22T03:48:31.273Z,19.87
2019-01-22T03:51:19.712Z,19.63
2019-01-22T03:53:59.735Z,19.73
2019-01-22T03:56:40.081Z,18.97
2019-01-22T03:59:08.505Z,20.70
2019-01-22T04:01:37.005Z,21.40
2019-01-22T04:04:05.738Z,19.87
2019-01-22T04:06:34.239Z,20.27
2019-01-22T04:09:05.093Z,22.13
2019-01-22T04:11:33.799Z,20.90
2019-01-22T04:14:02.294Z,19.43
2019-01-22T04:16:31.099Z,20.70
2019-01-22T04:18:59.635Z,21.03
2019-01-22T04:21:29.994Z,20.63
2019-01-22T04:24:40.439Z,19.80
2019-01-22T04:27:24.908Z,19.53
2019-01-22T04:30:35.316Z,20.03
2019-01-22T04:33:15.538Z,19.10
2019-01-22T04:35:49.872Z,21.07
2019-01-22T04:38:55.757Z,19.70
2019-01-22T04:41:36.336Z,19.53
2019-01-22T04:44:47.871Z,18.50
2019-01-22T04:47:25.140Z,19.43
2019-01-22T04:50:30.967Z,20.80
2019-01-22T04:53:27.714Z,18.53
2019-01-22T04:58:26.050Z,19.23
2019-01-22T05:01:00.377Z,18.90
2019-01-22T05:03:40.739Z,18.70
2019-01-22T05:06:18.263Z,18.83
2019-01-22T05:09:12.012Z,20.10
2019-01-22T05:12:05.730Z,20.37
2019-01-22T05:14:37.429Z,19.90
2019-01-22T05:17:08.948Z,20.40
2019-01-22T05:19:52.322Z,20.07
2019-01-22T05:22:46.499Z,20.03
2019-01-22T05:25:42.574Z,20.33
2019-01-22T05:28:20.231Z,20.70
2019-01-22T05:30:52.006Z,20.80
2019-01-22T05:33:24.044Z,21.13
2019-01-22T05:36:25.733Z,20.30
2019-01-22T05:39:15.894Z,20.13
2019-01-22T05:41:53.545Z,20.37
2019-01-22T05:44:41.160Z,21.00
2019-01-22T05:47:25.386Z,21.20
2019-01-22T05:50:02.829Z,21.77
2019-01-22T05:53:07.564Z,20.63
2019-01-22T05:55:41.767Z,20.77
2019-01-22T05:58:13.792Z,20.97
2019-01-22T06:00:51.385Z,20.43
2019-01-22T06:03:22.886Z,20.60
2019-01-22T06:05:54.393Z,21.27
2019-01-22T06:08:34.766Z,21.37
2019-01-22T06:11:27.363Z,21.70
2019-01-22T06:14:21.083Z,22.03
2019-01-22T06:17:19.725Z,21.67
2019-01-22T06:19:59.999Z,22.27
2019-01-22T06:22:50.710Z,22.57
2019-01-22T06:25:36.986Z,22.43
2019-01-22T06:28:13.982Z,23.53
2019-01-22T06:31:00.594Z,24.30
2019-01-22T06:33:38.155Z,23.17
2019-01-22T06:36:12.784Z,23.43
2019-01-22T06:38:56.651Z,22.57
2019-01-22T06:41:28.156Z,23.73
2019-01-22T06:44:08.129Z,24.20
2019-01-22T06:46:48.514Z,24.67
2019-01-22T06:49:29.210Z,21.93
2019-01-22T06:52:15.958Z,22.73
2019-01-22T06:55:08.117Z,23.00
2019-01-22T06:58:04.510Z,22.63
2019-01-22T07:00:42.031Z,23.97
2019-01-22T07:03:25.565Z,23.87
2019-01-22T07:06:22.189Z,23.70
2019-01-22T07:09:16.330Z,23.73
2019-01-22T07:12:06.395Z,23.47
2019-01-22T07:14:53.020Z,24.33
2019-01-22T07:17:27.062Z,25.07
2019-01-22T07:20:01.495Z,25.00
2019-01-22T07:22:36.001Z,24.83
2019-01-22T07:25:10.474Z,25.00
2019-01-22T07:27:45.129Z,26.13
2019-01-22T07:30:36.257Z,24.83
2019-01-22T07:33:27.651Z,25.40
2019-01-22T07:35:57.330Z,24.73
2019-01-22T07:38:30.001Z,24.23
2019-01-22T07:41:02.590Z,25.23
2019-01-22T07:43:35.418Z,25.57
2019-01-22T07:46:42.871Z,25.30
2019-01-22T07:49:32.320Z,26.80
2019-01-22T07:52:24.238Z,25.23
2019-01-22T07:55:12.539Z,25.87
2019-01-22T07:57:52.981Z,26.90
2019-01-22T08:00:48.359Z,26.53
2019-01-22T08:04:03.538Z,27.03
2019-01-22T08:09:37.423Z,26.17
2019-01-22T08:12:25.504Z,25.27
2019-01-22T08:15:18.245Z,26.00
2019-01-22T08:17:58.649Z,26.27
2019-01-22T08:20:30.500Z,25.57
2019-01-22T08:23:22.711Z,26.27
2019-01-22T08:26:12.234Z,26.50
2019-01-22T08:29:07.214Z,26.27
2019-01-22T08:31:42.575Z,25.93
2019-01-22T08:34:26.070Z,26.17
2019-01-22T08:37:09.621Z,25.47
2019-01-22T08:42:43.634Z,26.30
2019-01-22T08:45:24.131Z,24.10
2019-01-22T08:48:27.330Z,24.93
2019-01-22T08:51:16.614Z,23.27
2019-01-22T08:54:03.485Z,23.80
2019-01-22T08:56:40.994Z,23.80
2019-01-22T08:59:14.922Z,23.00
2019-01-22T09:01:55.358Z,22.57
2019-01-22T09:04:44.898Z,22.07
2019-01-22T09:07:22.286Z,23.57
2019-01-22T09:10:13.406Z,23.20
2019-01-22T09:13:05.626Z,22.87
2019-01-22T09:16:01.074Z,25.13
2019-01-22T09:18:56.683Z,23.30
2019-01-22T09:22:02.786Z,24.07
2019-01-22T09:24:58.351Z,24.80
2019-01-22T09:27:47.660Z,23.93
2019-01-22T09:30:19.265Z,24.13
2019-01-22T09:32:56.990Z,25.40
2019-01-22T09:35:46.512Z,23.87
2019-01-22T09:38:14.950Z,24.60
2019-01-22T09:40:43.436Z,23.43
2019-01-22T09:43:11.989Z,23.43
2019-01-22T09:45:40.484Z,24.23
2019-01-22T09:48:08.918Z,25.47
2019-01-22T09:50:37.518Z,24.10
2019-01-22T09:53:06.009Z,25.30
2019-01-22T09:55:34.464Z,24.37
2019-01-22T09:58:03.040Z,23.97
2019-01-22T10:00:31.454Z,24.07
2019-01-22T10:02:59.878Z,24.13
2019-01-22T10:05:28.815Z,23.97
2019-01-22T10:07:57.326Z,23.50
2019-01-22T10:10:25.814Z,24.40
2019-01-22T10:12:54.302Z,24.70
2019-01-22T10:15:22.800Z,24.73
2019-01-22T10:17:51.601Z,25.83
2019-01-22T10:20:24.224Z,24.53
2019-01-22T10:22:52.806Z,25.60
2019-01-22T10:25:21.310Z,24.87
2019-01-22T10:27:49.930Z,24.90
2019-01-22T10:30:21.490Z,24.57
2019-01-22T10:32:49.915Z,23.77
2019-01-22T10:35:18.414Z,24.73
2019-01-22T10:37:47.037Z,24.10
2019-01-22T10:40:18.097Z,23.70
2019-01-22T10:42:46.516Z,23.93
2019-01-22T10:45:16.810Z,24.67
2019-01-22T10:47:45.383Z,22.70
2019-01-22T10:50:16.845Z,23.53
2019-01-22T10:52:45.420Z,24.10
2019-01-22T10:55:14.965Z,26.97
2019-01-22T10:57:43.630Z,25.77
2019-01-22T11:00:18.029Z,25.67
2019-01-22T11:02:46.453Z,27.33
2019-01-22T11:05:18.078Z,25.80
2019-01-22T11:07:46.639Z,25.73
2019-01-22T11:10:15.056Z,27.13
2019-01-22T11:12:43.497Z,26.37
2019-01-22T11:15:13.082Z,28.27
2019-01-22T11:17:41.501Z,28.37
2019-01-22T11:20:22.132Z,28.43
2019-01-22T11:22:50.549Z,28.43
2019-01-22T11:25:21.886Z,28.40
2019-01-22T11:27:50.437Z,29.50
2019-01-22T11:30:21.449Z,29.00
2019-01-22T11:32:49.944Z,29.33
2019-01-22T11:35:20.638Z,29.97
2019-01-22T11:37:49.118Z,29.37
2019-01-22T11:40:32.229Z,29.50
2019-01-22T11:43:00.797Z,28.63
2019-01-22T11:45:29.213Z,28.97
2019-01-22T11:47:57.633Z,29.40
2019-01-22T11:50:26.263Z,28.00
2019-01-22T11:52:54.687Z,29.37
2019-01-22T11:57:54.958Z,28.23
2019-01-22T12:00:42.303Z,28.40
2019-01-22T12:03:10.839Z,28.20
2019-01-22T12:05:39.266Z,29.27
2019-01-22T12:08:07.771Z,29.00
2019-01-22T12:10:36.267Z,26.77
2019-01-22T12:13:04.927Z,30.50
2019-01-22T12:15:33.356Z,28.27
2019-01-22T12:18:01.813Z,28.80
2019-01-22T12:20:35.938Z,27.43
2019-01-22T12:23:04.430Z,28.27
2019-01-22T12:25:32.952Z,27.67
2019-01-22T12:28:01.379Z,28.30
2019-01-22T12:30:52.146Z,28.60
2019-01-22T12:33:20.679Z,27.43
2019-01-22T12:35:49.108Z,27.20
2019-01-22T12:38:17.711Z,28.43
2019-01-22T12:40:46.126Z,28.80
2019-01-22T12:43:14.557Z,28.70
2019-01-22T12:46:02.611Z,26.83
2019-01-22T12:48:31.115Z,27.27
2019-01-22T12:50:59.544Z,28.50
2019-01-22T12:53:28.265Z,28.57
2019-01-22T12:55:56.683Z,25.87
2019-01-22T12:58:25.098Z,27.67
2019-01-22T13:00:53.650Z,27.20
2019-01-22T13:03:22.082Z,27.63
2019-01-22T13:05:53.241Z,30.10
2019-01-22T13:08:21.797Z,26.83
2019-01-22T13:10:50.297Z,26.97
2019-01-22T13:13:18.715Z,27.73
2019-01-22T13:15:47.171Z,27.40
2019-01-22T13:18:15.659Z,26.53
2019-01-22T13:21:03.643Z,28.13
2019-01-22T13:23:32.069Z,26.73
2019-01-22T13:26:00.557Z,26.23
2019-01-22T13:28:29.022Z,26.63
2019-01-22T13:30:57.535Z,25.70
2019-01-22T13:33:25.965Z,26.80
2019-01-22T13:35:54.750Z,26.37
2019-01-22T13:38:23.162Z,26.07
2019-01-22T13:40:51.601Z,24.73
2019-01-22T13:43:20.342Z,24.77
2019-01-22T13:45:48.778Z,26.13
2019-01-22T13:48:17.204Z,26.47
2019-01-22T13:51:05.250Z,27.03
2019-01-22T13:53:33.682Z,26.13
2019-01-22T13:56:02.097Z,26.70
2019-01-22T13:58:30.921Z,27.17
2019-01-22T14:00:59.375Z,27.00
2019-01-22T14:03:27.928Z,28.17
2019-01-22T14:05:56.788Z,27.70
2019-01-22T14:08:25.389Z,27.70
2019-01-22T14:10:53.812Z,28.60
2019-01-22T14:13:22.282Z,27.83
2019-01-22T14:15:50.804Z,28.13
2019-01-22T14:18:19.300Z,27.03
2019-01-22T14:20:47.944Z,26.87
2019-01-22T14:23:16.366Z,28.33
2019-01-22T14:25:45.750Z,28.23
2019-01-22T14:28:14.354Z,27.90
2019-01-22T14:30:42.773Z,27.87
2019-01-22T14:33:11.213Z,29.00
2019-01-22T14:35:39.810Z,28.70
2019-01-22T14:38:08.314Z,29.27
2019-01-22T14:40:36.753Z,28.97
2019-01-22T14:43:05.402Z,29.93
2019-01-22T14:45:33.829Z,29.47
2019-01-22T14:48:02.264Z,30.60
2019-01-22T14:50:32.767Z,30.10
2019-01-22T14:53:01.194Z,30.63
2019-01-22T14:55:29.715Z,29.43
2019-01-22T14:57:58.290Z,29.93
2019-01-22T15:00:28.672Z,30.23
2019-01-22T15:02:58.537Z,29.73
2019-01-22T15:05:27.516Z,30.17
2019-01-22T15:07:55.930Z,28.70
2019-01-22T15:10:24.354Z,27.80
2019-01-22T15:12:55.430Z,28.47
2019-01-22T15:15:23.865Z,27.33
2019-01-22T15:17:52.356Z,26.50
2019-01-22T15:20:25.481Z,26.67
2019-01-22T15:22:53.977Z,26.57
2019-01-22T15:25:22.668Z,26.80
2019-01-22T15:27:51.163Z,26.27
2019-01-22T15:30:22.647Z,28.03
2019-01-22T15:32:51.066Z,27.40
2019-01-22T15:35:19.750Z,27.27
2019-01-22T15:37:48.173Z,26.30
2019-01-22T15:40:19.333Z,28.37
2019-01-22T15:42:47.961Z,27.27
2019-01-22T15:45:16.533Z,29.23
2019-01-22T15:47:44.967Z,30.00
2019-01-22T15:50:16.367Z,29.50
2019-01-22T15:52:44.797Z,29.27
2019-01-22T15:55:19.493Z,30.10
2019-01-22T15:57:47.972Z,29.50
2019-01-22T16:00:18.741Z,30.83
2019-01-22T16:02:47.329Z,28.90
2019-01-22T16:05:16.004Z,28.57
2019-01-22T16:07:44.605Z,29.57
2019-01-22T16:10:13.673Z,30.40
2019-01-22T16:12:42.095Z,28.60
2019-01-22T16:15:16.350Z,27.97
2019-01-22T16:17:44.894Z,29.50
2019-01-22T16:20:16.395Z,28.13
2019-01-22T16:22:44.826Z,28.43
2019-01-22T16:25:14.010Z,28.33
2019-01-22T16:27:42.422Z,29.30
2019-01-22T16:30:16.357Z,28.67
2019-01-22T16:32:44.878Z,29.50
2019-01-22T16:35:15.630Z,30.43
2019-01-22T16:37:44.194Z,29.63
2019-01-22T16:40:14.976Z,29.83
2019-01-22T16:42:43.543Z,31.83
2019-01-22T16:45:22.081Z,28.83
2019-01-22T16:47:50.217Z,29.90
2019-01-22T16:50:18.383Z,28.70
2019-01-22T16:52:46.801Z,28.90
2019-01-22T16:55:16.789Z,28.70
2019-01-22T16:57:44.952Z,28.97
2019-01-22T17:00:14.813Z,28.83
2019-01-22T17:02:42.954Z,28.60
2019-01-22T17:05:11.391Z,27.43
2019-01-22T17:07:39.599Z,27.00
2019-01-22T17:10:09.287Z,28.47
2019-01-22T17:12:37.423Z,29.73
2019-01-22T17:15:07.369Z,29.90
2019-01-22T17:17:35.510Z,32.60
2019-01-22T17:20:05.194Z,31.37
2019-01-22T17:22:33.699Z,30.30
2019-01-22T17:25:01.854Z,30.17
2019-01-22T17:27:30.003Z,28.87
2019-01-22T17:29:58.194Z,30.57
2019-01-22T17:32:27.954Z,28.50
2019-01-22T17:34:56.265Z,28.47
2019-01-22T17:37:24.546Z,29.87
2019-01-22T17:39:52.690Z,29.43
2019-01-22T17:42:20.848Z,28.87
2019-01-22T17:44:49.023Z,30.00
2019-01-22T17:47:17.169Z,30.57
2019-01-22T17:49:45.302Z,28.80
2019-01-22T17:52:13.722Z,29.13
2019-01-22T17:54:42.066Z,27.77
2019-01-22T17:57:13.962Z,28.30
2019-01-22T17:59:40.765Z,27.07
2019-01-22T18:02:08.914Z,25.00
2019-01-22T18:04:37.050Z,24.33
2019-01-22T18:07:05.394Z,25.90
2019-01-22T18:09:33.550Z,27.63
2019-01-22T18:12:01.713Z,25.90
2019-01-22T18:14:30.183Z,26.63
2019-01-22T18:16:58.319Z,27.27
2019-01-22T18:19:26.456Z,26.13
2019-01-22T18:21:55.252Z,27.33
2019-01-22T18:24:23.390Z,26.87
2019-01-22T18:26:51.552Z,27.87
2019-01-22T18:29:19.761Z,27.33
2019-01-22T18:31:47.910Z,26.97
2019-01-22T18:34:16.046Z,26.20
2019-01-22T18:36:44.502Z,26.23
2019-01-22T18:39:12.638Z,25.73
2019-01-22T18:41:40.778Z,25.87
2019-01-22T18:44:08.941Z,26.07
2019-01-22T18:46:37.158Z,26.47
2019-01-22T18:49:05.299Z,26.23
2019-01-22T18:51:33.726Z,27.50
2019-01-22T18:54:01.875Z,26.13
2019-01-22T18:56:30.278Z,25.47
2019-01-22T18:58:58.482Z,24.93
2019-01-22T19:01:26.613Z,24.17
2019-01-22T19:03:54.762Z,24.33
2019-01-22T19:06:23.241Z,24.40
2019-01-22T19:08:51.421Z,24.97
2019-01-22T19:11:19.602Z,24.43
2019-01-22T19:13:47.914Z,23.17
2019-01-22T19:16:16.053Z,23.73
2019-01-22T19:18:44.198Z,24.23
2019-01-22T19:21:12.630Z,25.00
2019-01-22T19:23:40.774Z,24.47
2019-01-22T19:26:08.937Z,25.60
2019-01-22T19:28:37.107Z,24.23
2019-01-22T19:31:05.257Z,25.33
2019-01-22T19:33:33.402Z,25.90
2019-01-22T19:36:01.706Z,26.03
2019-01-22T19:38:29.832Z,25.30
2019-01-22T19:40:57.971Z,22.53
2019-01-22T19:43:26.128Z,23.13
2019-01-22T19:45:54.268Z,23.43
2019-01-22T19:48:22.408Z,22.83
2019-01-22T19:50:50.562Z,23.47
2019-01-22T19:53:18.712Z,24.30
2019-01-22T19:55:47.035Z,23.93
2019-01-22T19:58:15.598Z,21.80
2019-01-22T20:00:43.751Z,23.53
2019-01-22T20:03:11.878Z,21.83
2019-01-22T20:05:40.129Z,22.47
2019-01-22T20:08:08.544Z,22.17
2019-01-22T20:10:36.682Z,22.93
2019-01-22T20:13:05.056Z,22.67
2019-01-22T20:15:33.251Z,22.13
2019-01-22T20:18:02.664Z,22.20
2019-01-22T20:20:31.142Z,22.30
2019-01-22T20:22:59.273Z,22.00
2019-01-22T20:25:27.420Z,22.60
2019-01-22T20:27:55.769Z,21.30
2019-01-22T20:30:31.077Z,21.87
2019-01-22T20:32:59.378Z,22.93
2019-01-22T20:35:27.522Z,22.00
2019-01-22T20:37:55.730Z,21.83
2019-01-22T20:40:24.052Z,21.97
2019-01-22T20:42:52.187Z,22.27
2019-01-22T20:45:21.598Z,22.63
2019-01-22T20:47:49.767Z,22.37
2019-01-22T20:50:19.271Z,22.30
2019-01-22T20:52:47.839Z,21.37
2019-01-22T20:55:17.467Z,20.73
2019-01-22T20:57:54.442Z,21.60
2019-01-22T21:00:19.559Z,20.77
2019-01-22T21:02:51.093Z,20.20
2019-01-22T21:05:20.446Z,20.47
2019-01-22T21:07:48.612Z,19.33
2019-01-22T21:10:18.091Z,20.13
2019-01-22T21:12:46.242Z,19.97
2019-01-22T21:15:14.566Z,20.57
2019-01-22T21:17:42.826Z,20.03
2019-01-22T21:20:12.504Z,19.47
2019-01-22T21:22:40.665Z,20.70
2019-01-22T21:25:10.462Z,20.07
2019-01-22T21:27:38.611Z,21.03
2019-01-22T21:30:08.278Z,21.37
2019-01-22T21:32:36.671Z,21.33
2019-01-22T21:35:06.178Z,21.53
2019-01-22T21:37:34.320Z,20.00
2019-01-22T21:40:02.789Z,20.40
2019-01-22T21:42:31.006Z,20.37
2019-01-22T21:44:59.152Z,20.83
2019-01-22T21:47:27.424Z,21.40
2019-01-22T21:49:55.568Z,21.17
2019-01-22T21:52:23.715Z,20.97
2019-01-22T21:54:51.906Z,18.33
2019-01-22T21:57:20.122Z,18.20
2019-01-22T21:59:48.355Z,18.90
2019-01-22T22:02:17.125Z,18.73
2019-01-22T22:04:45.355Z,18.83
2019-01-22T22:07:13.625Z,18.40
2019-01-22T22:09:42.048Z,18.93
2019-01-22T22:12:10.270Z,18.17
2019-01-22T22:14:38.413Z,18.50
2019-01-22T22:17:06.580Z,18.20
2019-01-22T22:19:34.728Z,19.27
2019-01-22T22:22:02.857Z,18.10
2019-01-22T22:24:31.072Z,17.97
2019-01-22T22:26:59.660Z,18.03
2019-01-22T22:29:27.999Z,19.00
2019-01-22T22:31:56.333Z,18.10
2019-01-22T22:34:24.537Z,19.17
2019-01-22T22:36:52.682Z,18.07
2019-01-22T22:39:21.069Z,18.30
2019-01-22T22:41:49.206Z,19.30
2019-01-22T22:44:17.518Z,18.47
2019-01-22T22:46:45.818Z,19.13
2019-01-22T22:49:13.957Z,19.20
2019-01-22T22:51:42.094Z,19.53
2019-01-22T22:54:10.265Z,19.23
2019-01-22T22:56:38.514Z,18.83
2019-01-22T22:59:07.063Z,19.23
2019-01-22T23:01:35.440Z,18.00
2019-01-22T23:04:03.745Z,18.87
2019-01-22T23:06:31.893Z,19.00
2019-01-22T23:09:00.096Z,18.93
2019-01-22T23:11:28.265Z,19.23
2019-01-22T23:13:56.406Z,20.37
2019-01-22T23:16:24.553Z,20.13
2019-01-22T23:18:52.709Z,19.87
2019-01-22T23:21:20.914Z,20.33
2019-01-22T23:23:49.419Z,20.33
2019-01-22T23:26:17.573Z,19.97
2019-01-22T23:28:45.725Z,20.60
2019-01-22T23:31:14.025Z,20.20
2019-01-22T23:33:42.183Z,19.70
2019-01-22T23:36:10.385Z,19.47
2019-01-22T23:38:38.583Z,21.50
2019-01-22T23:41:06.785Z,21.80
2019-01-22T23:43:34.935Z,21.33
2019-01-22T23:46:03.098Z,21.53
2019-01-22T23:48:31.238Z,21.13
2019-01-22T23:50:59.389Z,20.67
2019-01-22T23:53:27.597Z,19.97
2019-01-22T23:55:55.753Z,20.00
2019-01-22T23:58:23.897Z,20.03
